Time;durP1;ratioP1;P1;durP2;ratioP2;P2;SDS_P1;SDS_P2;PMS_P1;PMS_P2;Temp;Humidity;BMP_temperature;BMP_pressure;BME280_temperature;BME280_humidity;BME280_pressure;Samples;Min_cycle;Max_cycle;Signal;HPM_P1;HPM_P2
2023/05/29 00:08:36;;;;;;;;;;;;;;;22.75;37.17;100290.91;39931453;29;19957;-80
2023/05/29 00:28:37;;;;;;;;;;;;;;;22.60;36.96;100290.41;39918327;29;19985;-81
2023/05/29 00:48:37;;;;;;;;;;;;;;;22.50;37.11;100293.00;39889104;29;20399;-81
2023/05/29 01:08:37;;;;;;;;;;;;;;;22.37;37.40;100274.69;39900098;29;19928;-81
2023/05/29 01:28:47;;;;;;;;;;;;;;;22.25;37.46;100265.16;39916224;29;19931;-80
2023/05/29 01:48:47;;;;;;;;;;;;;;;22.17;38.23;100258.72;39927549;29;19973;-80
2023/05/29 02:08:48;;;;;;;;;;;;;;;22.13;37.90;100254.69;39946338;29;19932;-84
2023/05/29 02:28:48;;;;;;;;;;;;;;;22.04;38.57;100242.25;39919657;29;20312;-81
2023/05/29 02:48:49;;;;;;;;;;;;;;;21.95;38.55;100232.47;39932702;29;19975;-81
2023/05/29 03:08:51;;;;;;;;;;;;;;;21.87;38.92;100230.47;39926889;29;19925;-79
2023/05/29 03:28:51;;;;;;;;;;;;;;;21.79;38.78;100238.19;39930026;29;19924;-79
2023/05/29 03:48:51;;;;;;;;;;;;;;;21.79;39.09;100269.81;39906609;29;20392;-81
2023/05/29 04:08:52;;;;;;;;;;;;;;;21.69;39.89;100269.72;39921514;29;19933;-81
2023/05/29 04:28:56;;;;;;;;;;;;;;;21.68;39.87;100279.44;39882518;29;19939;-81
2023/05/29 04:48:57;;;;;;;;;;;;;;;21.71;40.40;100287.09;39910506;29;19967;-81
2023/05/29 05:08:57;;;;;;;;;;;;;;;21.74;41.11;100288.66;39906383;29;19925;-74
2023/05/29 05:28:59;;;;;;;;;;;;;;;21.89;41.28;100297.94;39893066;29;19936;-78
2023/05/29 05:49:00;;;;;;;;;;;;;;;21.98;41.08;100298.13;39909778;29;19933;-77
2023/05/29 06:09:01;;;;;;;;;;;;;;;22.10;41.22;100306.84;39876231;29;19981;-80
2023/05/29 06:29:01;;;;;;;;;;;;;;;22.26;41.78;100316.97;39895775;29;19934;-84
2023/05/29 06:49:02;;;;;;;;;;;;;;;22.39;41.87;100323.75;39936538;29;20312;-82
2023/05/29 07:09:04;;;;;;;;;;;;;;;22.54;41.99;100336.63;39933429;29;19925;-82
2023/05/29 07:29:04;;;;;;;;;;;;;;;22.49;42.51;100347.56;39902456;29;19925;-77
2023/05/29 07:49:05;;;;;;;;;;;;;;;22.55;42.45;100375.25;39866501;29;19933;-75
2023/05/29 08:09:14;;;;;;;;;;;;;;;22.75;42.92;100359.53;39897093;29;19933;-75
2023/05/29 08:29:14;;;;;;;;;;;;;;;22.95;42.76;100357.81;39870892;29;19950;-77
2023/05/29 08:49:16;;;;;;;;;;;;;;;23.07;43.62;100358.56;39872056;29;19934;-77
2023/05/29 09:09:16;;;;;;;;;;;;;;;23.21;43.41;100341.59;39849116;29;19924;-81
2023/05/29 09:29:17;;;;;;;;;;;;;;;23.34;43.03;100344.81;39872072;29;19925;-78
2023/05/29 09:49:22;;;;;;;;;;;;;;;23.43;42.35;100356.41;39880264;29;19985;-78
2023/05/29 10:09:25;;;;;;;;;;;;;;;23.44;42.81;100366.00;39910843;29;19929;-82
2023/05/29 10:29:59;;;;;;;7.13;4.00;;;;;;;23.62;43.18;100364.38;39883348;29;21010;-75
2023/05/29 10:50:00;;;;;;;;;;;;;;;23.53;43.63;100351.13;39874486;29;20055;-73
2023/05/29 11:10:21;;;;;;;;;;;;;;;23.48;45.09;100351.53;39864356;29;19931;-74
2023/05/29 11:30:22;;;;;;;;;;;;;;;23.53;44.03;100338.75;39860815;29;19936;-76
2023/05/29 11:50:27;;;;;;;;;;;;;;;23.53;43.08;100324.72;39903303;29;19992;-75
2023/05/29 12:10:28;;;;;;;;;;;;;;;23.55;43.38;100291.88;39925574;29;19962;-76
2023/05/29 12:30:30;;;;;;;;;;;;;;;23.67;42.67;100264.34;39909676;29;19951;-75
2023/05/29 12:50:31;;;;;;;;;;;;;;;23.97;42.71;100245.84;39891664;29;20319;-76
2023/05/29 13:10:31;;;;;;;;;;;;;;;24.20;41.97;100251.66;39910966;29;19932;-75
2023/05/29 13:30:32;;;;;;;;;;;;;;;24.26;41.39;100237.88;39883016;29;19935;-76
2023/05/29 13:50:33;;;;;;;;;;;;;;;24.40;40.46;100233.09;39890527;29;19932;-75
2023/05/29 14:10:33;;;;;;;;;;;;;;;24.56;40.97;100220.09;39871367;29;20011;-77
2023/05/29 14:30:33;;;;;;;;;;;;;;;24.68;40.16;100217.28;39876774;29;19940;-79
2023/05/29 14:50:34;;;;;;;;;;;;;;;24.72;42.16;100211.56;39877370;29;20452;-76
2023/05/29 15:10:34;;;;;;;;;;;;;;;24.84;43.79;100211.38;39892479;29;19947;-74
2023/05/29 15:30:35;;;;;;;;;;;;;;;24.83;42.24;100199.09;39888679;29;19964;-74
2023/05/29 15:50:36;;;;;;;;;;;;;;;24.77;37.19;100190.78;39885456;29;19925;-74
2023/05/29 16:10:37;;;;;;;;;;;;;;;24.72;37.16;100182.44;39872204;29;19939;-73
2023/05/29 16:30:38;;;;;;;;;;;;;;;24.68;37.21;100189.03;39856970;29;20679;-75
2023/05/29 16:50:40;;;;;;;;;;;;;;;24.70;37.32;100197.63;39863639;29;19940;-76
2023/05/29 17:10:41;;;;;;;;;;;;;;;24.73;37.37;100188.56;39858887;29;19933;-78
2023/05/29 17:30:41;;;;;;;;;;;;;;;24.64;36.95;100200.84;39875668;29;19925;-76
2023/05/29 17:50:42;;;;;;;;;;;;;;;24.53;37.16;100211.63;39870359;29;20011;-77
2023/05/29 18:10:42;;;;;;;;;;;;;;;24.39;37.88;100226.13;39916323;29;19988;-78
2023/05/29 18:30:43;;;;;;;;;;;;;;;24.25;38.79;100233.56;39907388;29;19935;-77
2023/05/29 18:50:43;;;;;;;;;;;;;;;24.15;39.52;100243.34;39884356;29;20305;-79
2023/05/29 19:10:44;;;;;;;;;;;;;;;24.03;41.30;100252.41;39851115;29;19972;-78
2023/05/29 19:30:45;;;;;;;;;;;;;;;23.86;41.77;100262.66;39902247;29;19928;-76
2023/05/29 19:50:48;;;;;;;;;;;;;;;23.71;42.40;100283.41;39903796;29;19936;-75
2023/05/29 20:10:48;;;;;;;;;;;;;;;23.66;44.19;100290.94;39937979;29;19928;-75
2023/05/29 20:30:49;;;;;;;;;;;;;;;23.54;45.43;100287.56;39919083;29;20564;-75
2023/05/29 20:50:49;;;;;;;;;;;;;;;23.39;46.74;100273.91;39914068;29;19917;-75
2023/05/29 21:10:50;;;;;;;;;;;;;;;23.24;47.63;100276.13;39945214;29;20028;-74
2023/05/29 21:30:50;;;;;;;;;;;;;;;23.10;48.04;100263.25;39905747;29;20329;-75
2023/05/29 21:50:51;;;;;;;;;;;;;;;22.87;48.95;100268.72;39925339;29;20031;-74
2023/05/29 22:10:51;;;;;;;;;;;;;;;22.67;49.54;100266.00;39945180;29;19929;-74
2023/05/29 22:30:52;;;;;;;;;;;;;;;22.56;49.97;100279.28;39942970;29;19929;-74
2023/05/29 22:50:55;;;;;;;;;;;;;;;22.33;50.06;100260.09;39905452;29;20273;-74
2023/05/29 23:10:55;;;;;;;;;;;;;;;22.14;50.56;100264.28;39933109;29;19933;-74
2023/05/29 23:30:56;;;;;;;;;;;;;;;22.02;51.00;100262.63;39921881;29;19925;-75
2023/05/29 23:50:57;;;;;;;;;;;;;;;21.92;51.25;100252.03;39918741;29;19936;-74
